Aérodrome :
LOGIN :

S'inscrire | Disclaimer

   EN    FR    IT 

 










Légende :    VFR   VFR Marginal   IFR   IFR Intensif   IFR Très Intensif
Visi : 
Plafond : 
>= 8 km
>= 3000ft
5 à 8 km
1000 à 3000 ft
1500m à 5 km
500 à 1000 ft
800 à 1500m
200 à 500 ft
< 800m
< 200 ft
Symboles :   Orages  Brouillard  Fortes neiges  Fortes précipitations  Vent > 20 kt
SIGMETs :   Divers  Orages  Givrage  Turbulence  Onde Orograph.  Cendres Volcan.







- Altitude de l'aérodrome : 122 ft
- Code IATA : TXL


EDDT - Berlin Tegel Int.

DERNIER METAR :
  • 250620Z 25011KT 9999 SCT025 SCT040 BKN080 10/05 Q1001 NOSIG

METARs EXPIRÉS :
  • 250550Z 20007KT 9999 SCT040 BKN080 10/04 Q1001 NOSIG
  • 250520Z 18004KT 150V220 9999 -RA NSC 09/05 Q1001 NOSIG
  • 250450Z 22003KT 9999 -RA NSC 09/05 Q1001 NOSIG
  • 250420Z 21004KT CAVOK 08/04 Q1001 NOSIG
  • 250350Z 20003KT 170V240 CAVOK 08/04 Q1001 NOSIG

TAF TAF EDDT
Valide du 25 à 06h jusqu'au 26 à 06h UTC


250500Z 2506/2606 VRB03KT 9999 BKN020
BECMG 2506/2509 26010KT
TEMPO 2506/2510 BKN012
TEMPO 2509/2518 28015G25KT
BECMG 2518/2521 28005KT
Pas de NOTAMs connus pour ce terrain.



MET'MAP, la Météo Aéronautique d'un coup d'oeil ! - Copyright ORBIFLY Décembre 2007 - Disclaimer

ORBIFLY MET'MAP TEAM :

Programmation & Développement : Alexandra Zaïnal
Conception & Développement : Baudouin d'Aumeries
Co-Programmation & Développement : Marc-Olivier Méhu
Soutien technique & logistique : Manuel Goepfert

Contact : metmap@orbifly.com




SOURCES & CREDITS :

   NOAA